createdAt,value
2022-09-23T00:00:45.635Z,11.05
2022-09-23T00:03:13.007Z,11.15
2022-09-23T00:05:39.833Z,11.07
2022-09-23T00:08:08.040Z,11.04
2022-09-23T00:10:37.670Z,10.98
2022-09-23T00:13:05.166Z,11.09
2022-09-23T00:15:33.848Z,11.12
2022-09-23T00:18:00.587Z,11.04
2022-09-23T00:20:28.385Z,11.08
2022-09-23T00:22:55.124Z,11.04
2022-09-23T00:25:21.755Z,11.02
2022-09-23T00:27:48.424Z,11.00
2022-09-23T00:30:15.470Z,11.00
2022-09-23T00:32:42.275Z,10.97
2022-09-23T00:35:08.989Z,10.86
2022-09-23T00:37:35.686Z,10.82
2022-09-23T00:40:03.124Z,10.76
2022-09-23T00:42:29.855Z,10.87
2022-09-23T00:44:58.431Z,10.83
2022-09-23T00:47:32.440Z,10.84
2022-09-23T00:50:33.783Z,10.51
2022-09-23T00:53:01.813Z,10.60
2022-09-23T00:55:32.306Z,10.67
2022-09-23T00:58:01.806Z,10.68
2022-09-23T01:00:28.593Z,10.70
2022-09-23T01:02:55.363Z,10.67
2022-09-23T01:05:22.098Z,10.67
2022-09-23T01:07:49.635Z,10.62
2022-09-23T01:10:16.887Z,10.55
2022-09-23T01:12:52.648Z,10.58
2022-09-23T01:15:25.214Z,10.56
2022-09-23T01:18:09.331Z,10.46
2022-09-23T01:21:00.999Z,10.38
2022-09-23T01:23:33.672Z,10.50
2022-09-23T01:26:39.321Z,10.24
2022-09-23T01:29:35.719Z,10.20
2022-09-23T01:32:19.373Z,10.28
2022-09-23T01:35:14.915Z,10.16
2022-09-23T01:37:51.194Z,10.25
2022-09-23T01:40:19.690Z,10.29
2022-09-23T01:43:02.895Z,10.25
2022-09-23T01:45:48.426Z,10.09
2022-09-23T01:48:22.430Z,10.16
2022-09-23T01:50:56.952Z,10.04
2022-09-23T01:53:37.779Z,10.03
2022-09-23T01:56:19.914Z,10.00
2022-09-23T01:59:17.024Z,9.96
2022-09-23T02:02:08.076Z,9.98
2022-09-23T02:04:54.033Z,10.06
2022-09-23T02:07:49.655Z,9.90
2022-09-23T02:10:30.624Z,10.05
2022-09-23T02:13:00.872Z,10.13
2022-09-23T02:15:35.431Z,10.08
2022-09-23T02:18:08.739Z,10.01
2022-09-23T02:20:39.540Z,10.12
2022-09-23T02:23:09.943Z,10.12
2022-09-23T02:26:02.314Z,9.93
2022-09-23T02:28:39.256Z,9.96
2022-09-23T02:31:13.115Z,9.96
2022-09-23T02:33:46.482Z,9.89
2022-09-23T02:36:30.137Z,9.86
2022-09-23T02:38:59.312Z,9.90
2022-09-23T02:41:32.427Z,9.81
2022-09-23T02:44:02.117Z,9.45
2022-09-23T02:46:30.055Z,9.75
2022-09-23T02:49:01.104Z,9.73
2022-09-23T02:56:39.058Z,9.48
2022-09-23T02:59:06.103Z,9.82
2022-09-23T03:02:04.935Z,9.59
2022-09-23T03:04:50.586Z,9.69
2022-09-23T03:07:42.973Z,9.62
2022-09-23T03:10:21.545Z,9.65
2022-09-23T03:12:59.476Z,9.70
2022-09-23T03:15:46.691Z,9.54
2022-09-23T03:18:18.661Z,9.69
2022-09-23T03:20:50.396Z,9.60
2022-09-23T03:23:21.357Z,9.59
2022-09-23T03:25:49.846Z,9.58
2022-09-23T03:28:17.685Z,9.62
2022-09-23T03:30:44.599Z,9.61
2022-09-23T03:33:13.230Z,9.60
2022-09-23T03:36:07.748Z,9.60
2022-09-23T03:38:38.011Z,9.52
2022-09-23T03:41:05.927Z,9.51
2022-09-23T03:43:37.961Z,9.51
2022-09-23T03:46:07.148Z,9.47
2022-09-23T03:48:34.148Z,9.51
2022-09-23T03:51:22.578Z,9.33
2022-09-23T03:53:50.647Z,9.49
2022-09-23T03:56:17.557Z,9.40
2022-09-23T03:58:46.570Z,9.44
2022-09-23T04:01:14.747Z,9.45
2022-09-23T04:03:41.945Z,9.39
2022-09-23T04:06:08.917Z,9.43
2022-09-23T04:08:35.664Z,9.32
2022-09-23T04:11:02.579Z,9.34
2022-09-23T04:13:29.448Z,9.39
2022-09-23T04:15:56.199Z,9.40
2022-09-23T04:18:23.273Z,9.37
2022-09-23T04:20:49.959Z,9.34
2022-09-23T04:23:16.595Z,9.29
2022-09-23T04:25:47.561Z,9.17
2022-09-23T04:28:14.333Z,9.23
2022-09-23T04:30:45.947Z,9.17
2022-09-23T04:33:13.636Z,9.25
2022-09-23T04:35:40.733Z,9.33
2022-09-23T04:38:07.522Z,9.29
2022-09-23T04:40:35.666Z,9.25
2022-09-23T04:43:02.389Z,9.27
2022-09-23T04:45:30.145Z,9.18
2022-09-23T04:47:58.285Z,9.24
2022-09-23T04:50:26.059Z,9.20
2022-09-23T04:52:53.069Z,9.09
2022-09-23T04:55:20.059Z,9.19
2022-09-23T04:57:46.881Z,9.18
2022-09-23T05:00:15.165Z,9.14
2022-09-23T05:02:46.070Z,9.12
2022-09-23T05:05:14.021Z,9.27
2022-09-23T05:07:40.976Z,9.27
2022-09-23T05:10:08.041Z,9.31
2022-09-23T05:12:34.703Z,9.40
2022-09-23T05:15:01.358Z,9.38
2022-09-23T05:17:31.111Z,9.28
2022-09-23T05:19:58.797Z,9.21
2022-09-23T05:22:29.465Z,9.08
2022-09-23T05:24:56.082Z,9.19
2022-09-23T05:27:22.712Z,9.13
2022-09-23T05:29:49.810Z,9.30
2022-09-23T05:32:16.987Z,9.23
2022-09-23T05:34:43.674Z,9.29
2022-09-23T05:37:10.344Z,9.37
2022-09-23T05:39:37.002Z,9.39
2022-09-23T05:42:04.065Z,9.37
2022-09-23T05:44:30.695Z,9.46
2022-09-23T05:46:57.429Z,9.48
2022-09-23T05:49:37.655Z,9.51
2022-09-23T05:52:09.435Z,9.52
2022-09-23T05:54:36.492Z,9.56
2022-09-23T05:57:04.970Z,9.59
2022-09-23T05:59:31.910Z,9.61
2022-09-23T06:01:59.038Z,9.54
2022-09-23T06:04:25.746Z,9.53
2022-09-23T06:06:53.058Z,9.54
2022-09-23T06:09:19.707Z,9.49
2022-09-23T06:11:46.730Z,9.54
2022-09-23T06:14:14.657Z,9.51
2022-09-23T06:16:41.383Z,9.52
2022-09-23T06:19:08.063Z,9.56
2022-09-23T06:21:36.980Z,9.60
2022-09-23T06:24:04.522Z,9.62
2022-09-23T06:26:33.786Z,9.68
2022-09-23T06:29:02.640Z,9.69
2022-09-23T06:31:29.699Z,9.71
2022-09-23T06:34:08.684Z,9.82
2022-09-23T06:36:43.482Z,9.86
2022-09-23T06:39:10.937Z,9.88
2022-09-23T06:41:38.274Z,9.96
2022-09-23T06:44:11.569Z,9.91
2022-09-23T06:46:38.417Z,10.02
2022-09-23T06:49:05.091Z,10.06
2022-09-23T06:51:31.908Z,10.11
2022-09-23T06:53:58.526Z,10.14
2022-09-23T06:56:25.157Z,10.16
2022-09-23T06:58:52.428Z,10.25
2022-09-23T07:01:19.699Z,10.35
2022-09-23T07:03:48.152Z,10.38
2022-09-23T07:06:14.875Z,10.38
2022-09-23T07:08:46.871Z,10.37
2022-09-23T07:11:14.318Z,10.53
2022-09-23T07:13:42.151Z,10.59
2022-09-23T07:16:09.819Z,10.69
2022-09-23T07:18:37.450Z,10.79
2022-09-23T07:21:14.973Z,10.84
2022-09-23T07:23:46.191Z,10.85
2022-09-23T07:26:14.297Z,10.92
2022-09-23T07:28:40.931Z,10.99
2022-09-23T07:31:16.904Z,11.06
2022-09-23T07:33:45.883Z,11.11
2022-09-23T07:36:18.125Z,11.13
2022-09-23T07:38:45.973Z,11.17
2022-09-23T07:41:15.021Z,11.21
2022-09-23T07:43:41.771Z,11.24
2022-09-23T07:46:11.738Z,11.29
2022-09-23T07:48:38.874Z,11.29
2022-09-23T07:51:11.575Z,11.32
2022-09-23T07:53:38.195Z,11.36
2022-09-23T07:56:06.312Z,11.39
2022-09-23T07:58:34.235Z,11.42
2022-09-23T08:01:02.964Z,11.44
2022-09-23T08:03:29.747Z,11.49
2022-09-23T08:06:04.438Z,11.45
2022-09-23T08:08:31.346Z,11.50
2022-09-23T08:11:05.755Z,11.49
2022-09-23T08:13:33.180Z,11.59
2022-09-23T08:16:01.242Z,11.62
2022-09-23T08:18:36.826Z,11.66
2022-09-23T08:21:03.816Z,11.70
2022-09-23T08:23:33.753Z,11.71
2022-09-23T08:26:04.341Z,11.74
2022-09-23T08:28:33.181Z,11.75
2022-09-23T08:31:00.192Z,11.77
2022-09-23T08:33:27.211Z,11.79
2022-09-23T08:35:59.528Z,11.78
2022-09-23T08:38:26.335Z,11.86
2022-09-23T08:41:01.427Z,11.88
2022-09-23T08:43:33.219Z,11.90
2022-09-23T08:46:03.477Z,11.97
2022-09-23T08:48:41.066Z,11.94
2022-09-23T08:51:13.117Z,12.01
2022-09-23T08:53:42.223Z,12.04
2022-09-23T08:56:16.114Z,12.07
2022-09-23T08:58:50.292Z,12.12
2022-09-23T09:01:31.419Z,12.12
2022-09-23T09:04:03.516Z,12.21
2022-09-23T09:07:12.315Z,12.16
2022-09-23T09:10:14.318Z,12.25
2022-09-23T09:13:04.508Z,12.24
2022-09-23T09:15:31.734Z,12.36
2022-09-23T09:17:59.210Z,12.41
2022-09-23T09:20:47.693Z,12.32
2022-09-23T09:23:39.339Z,12.38
2022-09-23T09:26:09.505Z,12.47
2022-09-23T09:28:42.685Z,12.47
2022-09-23T09:31:15.530Z,12.38
2022-09-23T09:33:57.930Z,12.52
2022-09-23T09:36:38.675Z,12.55
2022-09-23T09:39:06.757Z,12.66
2022-09-23T09:41:33.644Z,12.69
2022-09-23T09:44:03.478Z,12.74
2022-09-23T09:46:38.259Z,12.76
2022-09-23T09:49:12.400Z,12.79
2022-09-23T09:51:42.595Z,12.82
2022-09-23T09:54:18.500Z,12.83
2022-09-23T09:56:45.243Z,12.91
2022-09-23T09:59:17.250Z,12.90
2022-09-23T10:01:44.068Z,12.96
2022-09-23T10:04:23.607Z,12.94
2022-09-23T10:07:14.168Z,12.94
2022-09-23T10:09:48.219Z,13.00
2022-09-23T10:12:21.376Z,13.06
2022-09-23T10:14:52.467Z,13.10
2022-09-23T10:17:24.369Z,13.10
2022-09-23T10:20:00.718Z,13.12
2022-09-23T10:22:36.412Z,13.10
2022-09-23T10:25:07.955Z,13.17
2022-09-23T10:27:35.948Z,13.23
2022-09-23T10:30:21.509Z,13.18
2022-09-23T10:32:48.915Z,13.29
2022-09-23T10:35:18.477Z,13.29
2022-09-23T10:37:56.290Z,13.31
2022-09-23T10:40:53.958Z,13.34
2022-09-23T10:44:06.939Z,13.29
2022-09-23T10:46:38.320Z,13.40
2022-09-23T10:49:39.069Z,13.38
2022-09-23T10:52:22.176Z,13.48
2022-09-23T10:55:19.527Z,13.45
2022-09-23T10:57:46.143Z,13.55
2022-09-23T11:00:40.828Z,13.54
2022-09-23T11:03:19.605Z,13.56
2022-09-23T11:05:52.039Z,13.61
2022-09-23T11:09:03.002Z,13.56
2022-09-23T11:11:56.956Z,13.63
2022-09-23T11:14:41.047Z,13.67
2022-09-23T11:17:22.660Z,13.71
2022-09-23T11:20:02.754Z,13.76
2022-09-23T11:22:57.450Z,13.80
2022-09-23T11:25:56.485Z,13.78
2022-09-23T11:28:47.904Z,13.84
2022-09-23T11:31:35.994Z,13.89
2022-09-23T11:34:11.653Z,13.97
2022-09-23T11:36:41.523Z,14.05
2022-09-23T11:39:18.053Z,14.03
2022-09-23T11:41:45.172Z,14.14
2022-09-23T11:44:16.577Z,14.15
2022-09-23T11:46:46.769Z,14.22
2022-09-23T11:49:16.608Z,14.27
2022-09-23T11:52:05.861Z,14.29
2022-09-23T11:54:55.660Z,14.26
2022-09-23T11:57:48.675Z,14.31
2022-09-23T12:00:19.954Z,14.41
2022-09-23T12:03:09.175Z,14.35
2022-09-23T12:05:43.033Z,14.43
2022-09-23T12:08:23.262Z,14.47
2022-09-23T12:11:01.446Z,14.50
2022-09-23T12:13:37.768Z,14.53
2022-09-23T12:16:38.846Z,14.51
2022-09-23T12:19:36.309Z,14.56
2022-09-23T12:22:43.873Z,14.56
2022-09-23T12:25:33.270Z,14.62
2022-09-23T12:28:04.749Z,14.70
2022-09-23T12:30:34.155Z,14.74
2022-09-23T12:33:22.024Z,14.74
2022-09-23T12:35:48.735Z,14.84
2022-09-23T12:38:22.892Z,14.83
2022-09-23T12:40:52.130Z,14.90
2022-09-23T12:43:35.447Z,14.85
2022-09-23T12:46:17.344Z,14.75
2022-09-23T12:49:03.660Z,14.96
2022-09-23T12:51:36.652Z,15.00
2022-09-23T12:54:03.177Z,15.05
2022-09-23T12:56:32.719Z,15.06
2022-09-23T12:59:01.895Z,15.10
2022-09-23T13:01:28.775Z,15.11
2022-09-23T13:04:16.079Z,15.15
2022-09-23T13:07:06.255Z,15.07
2022-09-23T13:09:39.566Z,15.17
2022-09-23T13:12:12.946Z,15.19
2022-09-23T13:14:40.667Z,15.22
2022-09-23T13:17:07.630Z,15.21
2022-09-23T13:19:38.545Z,15.20
2022-09-23T13:22:12.659Z,15.18
2022-09-23T13:24:42.393Z,15.25
2022-09-23T13:27:22.664Z,15.19
2022-09-23T13:30:07.611Z,15.22
2022-09-23T13:32:40.893Z,15.29
2022-09-23T13:35:13.570Z,15.32
2022-09-23T13:37:47.996Z,15.36
2022-09-23T13:40:17.864Z,15.43
2022-09-23T13:42:48.810Z,15.44
2022-09-23T13:45:21.289Z,15.43
2022-09-23T13:47:48.605Z,15.47
2022-09-23T13:50:24.753Z,15.43
2022-09-23T13:52:56.759Z,15.48
2022-09-23T13:55:25.185Z,15.51
2022-09-23T13:58:00.211Z,15.50
2022-09-23T14:00:27.037Z,15.56
2022-09-23T14:02:53.621Z,15.57
2022-09-23T14:05:26.265Z,15.53
2022-09-23T14:07:54.163Z,15.57
2022-09-23T14:10:22.058Z,15.57
2022-09-23T14:12:50.346Z,15.57
2022-09-23T14:15:18.984Z,15.53
2022-09-23T14:17:47.603Z,15.52
2022-09-23T14:20:15.118Z,15.52
2022-09-23T14:22:41.698Z,15.53
2022-09-23T14:25:18.052Z,15.48
2022-09-23T14:27:46.653Z,15.54
2022-09-23T14:30:20.329Z,15.53
2022-09-23T14:32:49.927Z,15.55
2022-09-23T14:35:28.191Z,15.47
2022-09-23T14:38:17.001Z,15.52
2022-09-23T14:40:51.951Z,15.50
2022-09-23T14:43:26.502Z,15.49
2022-09-23T14:45:56.133Z,15.57
2022-09-23T14:48:24.003Z,15.60
2022-09-23T14:51:17.288Z,15.48
2022-09-23T14:53:48.670Z,15.60
2022-09-23T14:56:21.059Z,15.58
2022-09-23T14:58:58.911Z,15.61
2022-09-23T15:01:34.610Z,15.60
2022-09-23T15:04:21.380Z,15.53
2022-09-23T15:06:53.877Z,15.65
2022-09-23T15:09:36.240Z,15.55
2022-09-23T15:12:07.026Z,15.63
2022-09-23T15:14:38.844Z,15.67
2022-09-23T15:17:23.892Z,15.63
2022-09-23T15:19:56.770Z,15.62
2022-09-23T15:22:24.582Z,15.66
2022-09-23T15:24:53.271Z,15.66
2022-09-23T15:27:27.748Z,15.65
2022-09-23T15:29:54.507Z,15.66
2022-09-23T15:32:22.000Z,15.66
2022-09-23T15:34:50.310Z,15.64
2022-09-23T15:37:17.666Z,15.64
2022-09-23T15:39:44.299Z,15.63
2022-09-23T15:42:11.742Z,15.61
2022-09-23T15:44:38.410Z,15.62
2022-09-23T15:47:05.100Z,15.60
2022-09-23T15:49:36.587Z,15.62
2022-09-23T15:52:05.145Z,15.62
2022-09-23T15:54:34.643Z,15.59
2022-09-23T15:57:01.350Z,15.60
2022-09-23T15:59:30.782Z,15.58
2022-09-23T16:01:59.190Z,15.56
2022-09-23T16:04:28.388Z,15.56
2022-09-23T16:06:55.000Z,15.54
2022-09-23T16:09:21.570Z,15.52
2022-09-23T16:11:49.616Z,15.52
2022-09-23T16:14:17.257Z,15.50
2022-09-23T16:16:45.255Z,15.51
2022-09-23T16:19:12.330Z,15.49
2022-09-23T16:21:41.030Z,15.47
2022-09-23T16:24:18.763Z,15.39
2022-09-23T16:26:47.505Z,15.44
2022-09-23T16:29:14.229Z,15.43
2022-09-23T16:31:40.965Z,15.44
2022-09-23T16:34:07.694Z,15.41
2022-09-23T16:36:41.146Z,15.37
2022-09-23T16:39:11.269Z,15.38
2022-09-23T16:41:42.900Z,15.39
2022-09-23T16:44:10.712Z,15.37
2022-09-23T16:46:43.015Z,15.13
2022-09-23T16:49:11.947Z,15.30
2022-09-23T16:51:38.959Z,15.31
2022-09-23T16:54:12.520Z,15.24
2022-09-23T16:56:44.959Z,15.28
2022-09-23T16:59:16.026Z,15.24
2022-09-23T17:02:02.179Z,15.26
2022-09-23T17:04:29.015Z,15.23
2022-09-23T17:06:56.520Z,15.22
2022-09-23T17:09:28.421Z,15.18
2022-09-23T17:12:15.548Z,15.14
2022-09-23T17:14:43.646Z,15.18
2022-09-23T17:17:10.240Z,15.16
2022-09-23T17:19:38.089Z,15.16
2022-09-23T17:22:04.702Z,15.12
2022-09-23T17:24:31.428Z,15.12
2022-09-23T17:26:58.169Z,15.11
2022-09-23T17:29:27.079Z,15.11
2022-09-23T17:31:54.273Z,15.09
2022-09-23T17:34:21.543Z,15.07
2022-09-23T17:36:48.467Z,15.06
2022-09-23T17:39:15.087Z,15.04
2022-09-23T17:41:41.849Z,15.04
2022-09-23T17:44:12.708Z,15.00
2022-09-23T17:46:44.762Z,14.99
2022-09-23T17:49:12.081Z,15.00
2022-09-23T17:51:38.833Z,14.97
2022-09-23T17:54:06.259Z,14.96
2022-09-23T17:56:33.897Z,14.96
2022-09-23T17:59:01.937Z,14.92
2022-09-23T18:01:36.264Z,14.86
2022-09-23T18:04:05.476Z,14.89
2022-09-23T18:06:37.776Z,14.87
2022-09-23T18:09:06.325Z,14.82
2022-09-23T18:11:35.301Z,14.82
2022-09-23T18:14:07.494Z,14.80
2022-09-23T18:16:37.423Z,14.77
2022-09-23T18:19:04.495Z,14.77
2022-09-23T18:21:34.367Z,14.76
2022-09-23T18:26:49.677Z,14.72
2022-09-23T18:29:16.475Z,14.73
2022-09-23T18:31:44.405Z,14.70
2022-09-23T18:34:16.632Z,14.67
2022-09-23T18:36:43.842Z,14.69
2022-09-23T18:39:11.040Z,14.68
2022-09-23T18:41:38.139Z,14.66
2022-09-23T18:44:04.900Z,14.67
2022-09-23T18:46:31.987Z,14.64
2022-09-23T18:49:17.821Z,14.65
2022-09-23T18:51:52.585Z,14.59
2022-09-23T18:54:22.290Z,14.65
2022-09-23T18:56:51.943Z,14.62
2022-09-23T18:59:20.543Z,14.62
2022-09-23T19:01:48.994Z,14.63
2022-09-23T19:04:18.341Z,14.59
2022-09-23T19:06:45.252Z,14.60
2022-09-23T19:09:12.761Z,14.57
2022-09-23T19:11:39.713Z,14.58
2022-09-23T19:14:10.820Z,14.56
2022-09-23T19:16:39.270Z,14.57
2022-09-23T19:19:06.453Z,14.56
2022-09-23T19:21:33.872Z,14.54
2022-09-23T19:24:03.563Z,14.49
2022-09-23T19:26:37.560Z,14.47
2022-09-23T19:29:05.512Z,14.57
2022-09-23T19:31:39.962Z,14.56
2022-09-23T19:34:11.966Z,14.56
2022-09-23T19:36:40.764Z,14.58
2022-09-23T19:39:14.995Z,14.58
2022-09-23T19:41:41.830Z,14.56
2022-09-23T19:44:09.270Z,14.51
2022-09-23T19:46:38.538Z,14.53
2022-09-23T19:49:06.481Z,14.52
2022-09-23T19:51:34.036Z,14.53
2022-09-23T19:54:01.540Z,14.51
2022-09-23T19:56:29.259Z,14.49
2022-09-23T19:58:57.762Z,14.46
2022-09-23T20:01:26.537Z,14.45
2022-09-23T20:03:53.670Z,14.45
2022-09-23T20:06:20.808Z,14.47
2022-09-23T20:08:48.076Z,14.45
2022-09-23T20:11:17.343Z,14.43
2022-09-23T20:13:47.083Z,14.41
2022-09-23T20:16:15.634Z,14.42
2022-09-23T20:18:42.715Z,14.41
2022-09-23T20:21:12.284Z,14.39
2022-09-23T20:23:39.315Z,14.39
2022-09-23T20:26:25.233Z,14.35
2022-09-23T20:28:51.902Z,14.33
2022-09-23T20:31:20.759Z,14.32
2022-09-23T20:33:58.523Z,14.20
2022-09-23T20:36:26.138Z,14.29
2022-09-23T20:38:56.881Z,14.30
2022-09-23T20:41:23.552Z,14.30
2022-09-23T20:43:54.264Z,14.31
2022-09-23T20:46:23.397Z,14.26
2022-09-23T20:48:50.317Z,14.22
2022-09-23T20:51:17.724Z,14.22
2022-09-23T20:53:44.450Z,14.23
2022-09-23T20:56:11.415Z,14.27
2022-09-23T20:58:38.097Z,14.27
2022-09-23T21:01:10.630Z,14.22
2022-09-23T21:03:43.701Z,14.24
2022-09-23T21:06:10.839Z,14.28
2022-09-23T21:08:37.711Z,14.21
2022-09-23T21:11:07.987Z,14.18
2022-09-23T21:13:34.719Z,14.19
2022-09-23T21:16:06.494Z,14.13
2022-09-23T21:18:33.903Z,14.18
2022-09-23T21:21:01.008Z,14.22
2022-09-23T21:23:29.524Z,14.23
2022-09-23T21:26:03.363Z,14.14
2022-09-23T21:28:35.404Z,14.15
2022-09-23T21:31:04.240Z,14.15
2022-09-23T21:33:31.252Z,14.15
2022-09-23T21:36:03.388Z,14.10
2022-09-23T21:38:31.082Z,14.04
2022-09-23T21:41:02.553Z,14.06
2022-09-23T21:43:33.397Z,14.02
2022-09-23T21:46:05.198Z,13.97
2022-09-23T21:48:33.704Z,14.01
2022-09-23T21:51:20.759Z,13.81
2022-09-23T21:53:47.961Z,13.96
2022-09-23T21:56:23.552Z,13.87
2022-09-23T21:58:52.130Z,13.95
2022-09-23T22:01:20.864Z,13.94
2022-09-23T22:03:53.005Z,13.84
2022-09-23T22:06:27.514Z,13.82
2022-09-23T22:08:59.847Z,13.79
2022-09-23T22:11:47.710Z,13.85
2022-09-23T22:14:15.934Z,13.82
2022-09-23T22:16:43.088Z,13.79
2022-09-23T22:19:10.880Z,13.84
2022-09-23T22:21:39.069Z,13.87
2022-09-23T22:24:07.660Z,13.92
2022-09-23T22:26:37.015Z,13.92
2022-09-23T22:29:24.564Z,13.92
2022-09-23T22:32:09.881Z,13.82
2022-09-23T22:34:51.887Z,13.78
2022-09-23T22:37:27.155Z,13.64
2022-09-23T22:39:54.686Z,13.72
2022-09-23T22:42:22.563Z,13.67
2022-09-23T22:44:50.168Z,13.71
2022-09-23T22:47:20.147Z,13.67
2022-09-23T22:49:47.411Z,13.70
2022-09-23T22:52:16.016Z,13.69
2022-09-23T22:54:43.259Z,13.72
2022-09-23T22:57:09.968Z,13.67
2022-09-23T22:59:39.943Z,13.71
2022-09-23T23:02:08.031Z,13.70
2022-09-23T23:04:36.494Z,13.79
2022-09-23T23:07:03.310Z,13.80
2022-09-23T23:09:29.968Z,13.77
2022-09-23T23:11:56.686Z,13.79
2022-09-23T23:14:23.364Z,13.82
2022-09-23T23:16:50.096Z,13.78
2022-09-23T23:19:17.544Z,13.77
2022-09-23T23:21:44.889Z,13.81
2022-09-23T23:24:15.215Z,13.77
2022-09-23T23:26:42.674Z,13.80
2022-09-23T23:29:11.575Z,13.80
2022-09-23T23:31:38.538Z,13.75
2022-09-23T23:34:07.234Z,13.74
2022-09-23T23:36:34.341Z,13.71
2022-09-23T23:39:01.016Z,13.72
2022-09-23T23:41:28.476Z,13.67
2022-09-23T23:44:00.233Z,13.66
2022-09-23T23:46:29.982Z,13.60
2022-09-23T23:48:57.248Z,13.62
2022-09-23T23:51:27.785Z,13.56
2022-09-23T23:53:56.197Z,13.56
2022-09-23T23:56:24.659Z,13.54
2022-09-23T23:59:00.106Z,13.40
